YM Venus — 9HCB8 — position and weather

sailwx.info

Track history (hours):
 
Tides and Currents Weather Stations Pressure Air Temp Water Temp Dewpoint Dewpoint Depression Visibility Wind Speed Wind Dir Waves Ship Positions

YM Venus

Last reported at 2016-Nov-06 22:33 UTC. Time now 2016-Dec-03 11:34 UTC.
Position N 36°44' E 014°20'.
Warning: this ship's position is 26 days out of date.

Length 105 m; draft 5.2 m.

Type: Tanker. MMSI: 215826000.

Date/timePositionNaut miles runAvg speedWind from/ knotsBaromVisibWave heightAir tempDewpointWater temp
2016-Nov-06 22:33N 36°44' E 014°20'2211.2
2016-Nov-06 20:33N 36°54' E 013°55'1111.1
2016-Nov-06 19:33N 36°59' E 013°43'4911.2
2016-Nov-06 15:12N 37°21' E 012°49'1811.0
2016-Nov-06 13:33N 37°29' E 012°28'1111.1
2016-Nov-06 12:31N 37°34' E 012°15'1611.2
2016-Nov-06 11:04N 37°42' E 011°57'611.1
2016-Nov-06 10:33N 37°44' E 011°50'2311.2
2016-Nov-06 08:30N 37°54' E 011°24'1111.4
2016-Nov-06 07:33N 37°59' E 011°12'9311.7
2016-Nov-05 23:33N 38°27' E 009°18'3211.3
2016-Nov-05 20:42N 38°38' E 008°39'32111.3
2016-Nov-04 16:10N 43°14' E 005°01'12 7.6
2016-Nov-04 14:33N 43°25' E 005°06'3 0.5
2016-Nov-04 08:03N 43°27' E 005°09'0 0.0
2016-Nov-04 07:33N 43°27' E 005°09'  
2016-Nov-01 23:05N 38°18' E 008°39'  
2016-Oct-30 13:34N 36°41' E 014°23'  
Track history (hours):
 
Tides and Currents Weather Stations Pressure Air Temp Water Temp Dewpoint Dewpoint Depression Visibility Wind Speed Wind Dir Waves Ship Positions

YM Venus

Last reported at 2016-Nov-06 22:33 UTC. Time now 2016-Dec-03 11:34 UTC.
Position N 36°44' E 014°20'.
Warning: this ship's position is 26 days out of date.

Length 105 m; draft 5.2 m.

Type: Tanker. MMSI: 215826000.

Date/timePositionNaut miles runAvg speedWind from/ knotsBaromVisibWave heightAir tempDewpointWater temp
2016-Nov-06 22:33N 36°44' E 014°20'2211.2
2016-Nov-06 20:33N 36°54' E 013°55'1111.1
2016-Nov-06 19:33N 36°59' E 013°43'4911.2
2016-Nov-06 15:12N 37°21' E 012°49'1811.0
2016-Nov-06 13:33N 37°29' E 012°28'1111.1
2016-Nov-06 12:31N 37°34' E 012°15'1611.2
2016-Nov-06 11:04N 37°42' E 011°57'611.1
2016-Nov-06 10:33N 37°44' E 011°50'2311.2
2016-Nov-06 08:30N 37°54' E 011°24'1111.4
2016-Nov-06 07:33N 37°59' E 011°12'9311.7
2016-Nov-05 23:33N 38°27' E 009°18'3211.3
2016-Nov-05 20:42N 38°38' E 008°39'32111.3
2016-Nov-04 16:10N 43°14' E 005°01'12 7.6
2016-Nov-04 14:33N 43°25' E 005°06'3 0.5
2016-Nov-04 08:03N 43°27' E 005°09'0 0.0
2016-Nov-04 07:33N 43°27' E 005°09'  
2016-Nov-01 23:05N 38°18' E 008°39'  
2016-Oct-30 13:34N 36°41' E 014°23'  

Dump ship's entire track history